Portada
METAR-TAF:

METAR-TAF

Aeropuertos :

Lafayette Regional Airport

Lafayette, Luisiana, Estados Unidos

latitud: 30-12-08N, longitud: 091-59-35W, altitud: 12 m

Observación

El informe se hizo hace 42 minutos, a las 19:53 UTC
Viento 8 kt del oeste-noroeste
Temperatura 23°C
Humedad 33%
Presión 1018 hPa
Visibilidad: 16.1 km
Cielo despejado

METAR: KLFT 201953Z 29008KT 10SM CLR 23/06 A3006 RMK AO2 SLP179 T02280056

Hora: 15:35 (20:35 UTC)

Pronóstico

El informe se hizo hace 3 horas y 15 minutos, a las 17:20 UTC
Pronóstico válido del 20 a las 18 UTC al 21 a las 18 UTC
Viento 10 kt del noroeste
Visibilidad: 10 km
Cielo despejado
A partir de las 20 a las 2300 UTC
Viento 5 kt con dirección variable
Visibilidad: 10 km
Cielo despejado
A partir de las 21 a las 1500 UTC
Viento 7 kt del sur-sureste
Visibilidad: 10 km
Cielo despejado

TAF: KLFT 201720Z 2018/2118 32010KT P6SM SKC FM202300 VRB05KT P6SM SKC FM211500 16007KT P6SM SKC

Observaciones y pronósticos meteorológicos de más de 4000 aeropuertos (mensajes METAR y TAF).

Los puntos amarillos y rojos representan las estaciones disponibles.

Ponga el ratón en el punto deseado para ver el nombre de la estación.

Haga clic para ver las observaciones y los pronósticos meteorológicos.

Para cambiar el mapa : haga clic en los botones verdes con una cruz de color negro para hacer un zoom, en el botón verde con un guión para alejar o en las flechas verdes para mapas adyacentes.


METAR-TAF: